createdAt,value
2018-12-04T00:03:57.714Z,89.22
2018-12-04T00:08:18.271Z,89.32
2018-12-04T00:12:35.711Z,89.41
2018-12-04T00:17:01.538Z,89.80
2018-12-04T00:21:13.794Z,89.76
2018-12-04T00:25:30.712Z,89.30
2018-12-04T00:30:06.037Z,88.84
2018-12-04T00:34:23.903Z,89.14
2018-12-04T00:39:01.873Z,89.70
2018-12-04T00:43:27.773Z,90.27
2018-12-04T00:47:53.043Z,89.76
2018-12-04T00:52:27.110Z,89.60
2018-12-04T00:57:05.845Z,89.68
2018-12-04T01:01:19.498Z,89.67
2018-12-04T01:05:31.274Z,89.81
2018-12-04T01:09:46.095Z,89.65
2018-12-04T01:14:09.399Z,89.75
2018-12-04T01:18:21.258Z,89.87
2018-12-04T01:22:51.306Z,90.45
2018-12-04T01:27:02.930Z,90.67
2018-12-04T01:31:27.748Z,91.12
2018-12-04T01:35:56.759Z,91.38
2018-12-04T01:40:11.229Z,90.85
2018-12-04T01:44:21.984Z,90.43
2018-12-04T01:48:34.943Z,89.99
2018-12-04T01:52:50.850Z,88.30
2018-12-04T01:57:02.510Z,88.00
2018-12-04T02:01:24.918Z,88.29
2018-12-04T02:06:04.825Z,88.18
2018-12-04T02:09:51.333Z,87.86
2018-12-04T02:14:18.731Z,86.98
2018-12-04T02:18:41.602Z,86.75
2018-12-04T02:23:07.011Z,86.33
2018-12-04T02:27:19.978Z,85.26
2018-12-04T02:31:37.237Z,84.80
2018-12-04T02:36:00.508Z,84.93
2018-12-04T02:40:14.004Z,83.85
2018-12-04T02:44:26.709Z,82.05
2018-12-04T02:48:40.349Z,82.42
2018-12-04T02:52:54.436Z,83.32
2018-12-04T02:57:17.007Z,83.77
2018-12-04T03:01:39.588Z,83.99
2018-12-04T03:05:59.336Z,83.86
2018-12-04T03:10:43.064Z,83.07
2018-12-04T03:15:29.087Z,82.59
2018-12-04T03:20:27.628Z,83.04
2018-12-04T03:24:38.658Z,82.85
2018-12-04T03:28:54.962Z,82.55
2018-12-04T03:33:20.544Z,82.13
2018-12-04T03:37:28.329Z,81.93
2018-12-04T03:41:36.107Z,82.28
2018-12-04T03:45:44.561Z,83.27
2018-12-04T03:49:52.519Z,83.18
2018-12-04T03:54:02.287Z,83.67
2018-12-04T03:58:10.113Z,84.99
2018-12-04T04:02:17.784Z,84.73
2018-12-04T04:06:25.385Z,84.51
2018-12-04T04:10:35.284Z,85.00
2018-12-04T04:15:25.084Z,81.48
2018-12-04T04:19:31.053Z,81.10
2018-12-04T04:23:36.850Z,81.09
2018-12-04T04:27:42.767Z,79.94
2018-12-04T04:31:48.857Z,79.76
2018-12-04T04:35:58.177Z,78.72
2018-12-04T04:40:05.629Z,77.89
2018-12-04T04:44:11.564Z,77.23
2018-12-04T04:48:17.512Z,76.82
2018-12-04T04:52:23.786Z,76.87
2018-12-04T04:56:29.912Z,77.35
2018-12-04T05:00:35.871Z,78.30
2018-12-04T05:04:42.144Z,78.46
2018-12-04T05:08:48.007Z,79.28
2018-12-04T05:12:54.918Z,78.23
2018-12-04T05:17:01.178Z,78.56
2018-12-04T05:21:07.249Z,79.01
2018-12-04T05:25:13.280Z,81.16
2018-12-04T05:29:19.175Z,80.48
2018-12-04T05:33:25.245Z,78.52
2018-12-04T05:37:31.447Z,78.98
2018-12-04T05:41:37.804Z,78.96
2018-12-04T05:45:43.620Z,79.61
2018-12-04T05:49:49.627Z,80.65
2018-12-04T05:53:55.372Z,81.02
2018-12-04T05:58:01.316Z,81.67
2018-12-04T06:02:07.356Z,81.72
2018-12-04T06:06:13.532Z,81.69
2018-12-04T06:10:19.504Z,82.63
2018-12-04T06:14:26.332Z,81.72
2018-12-04T06:18:32.363Z,82.14
2018-12-04T06:22:38.693Z,82.64
2018-12-04T06:26:44.629Z,82.25
2018-12-04T06:30:51.986Z,82.05
2018-12-04T06:34:59.247Z,83.48
2018-12-04T06:39:07.669Z,82.11
2018-12-04T06:43:14.374Z,82.25
2018-12-04T06:47:20.563Z,82.98
2018-12-04T06:51:26.517Z,81.75
2018-12-04T06:55:32.522Z,80.87
2018-12-04T06:59:38.504Z,79.20
2018-12-04T07:03:44.637Z,79.84
2018-12-04T07:07:53.276Z,80.26
2018-12-04T07:12:02.453Z,79.71
2018-12-04T07:16:08.629Z,79.73
2018-12-04T07:20:15.126Z,80.41
2018-12-04T07:24:22.265Z,81.02
2018-12-04T07:28:28.452Z,79.88
2018-12-04T07:32:38.717Z,80.01
2018-12-04T07:36:42.329Z,79.73
2018-12-04T07:40:48.629Z,78.51
2018-12-04T07:44:54.301Z,78.85
2018-12-04T07:49:01.343Z,79.34
2018-12-04T07:53:11.573Z,79.32
2018-12-04T08:01:40.790Z,80.32
2018-12-04T08:05:48.589Z,80.93
2018-12-04T08:09:54.955Z,80.48
2018-12-04T08:14:02.443Z,80.52
2018-12-04T08:18:07.973Z,80.38
2018-12-04T08:22:13.575Z,80.24
2018-12-04T08:26:19.388Z,80.52
2018-12-04T08:30:24.964Z,80.26
2018-12-04T08:34:30.660Z,78.34
2018-12-04T08:38:36.396Z,77.56
2018-12-04T08:42:42.078Z,76.61
2018-12-04T08:46:47.914Z,75.49
2018-12-04T08:50:53.862Z,74.22
2018-12-04T08:54:59.519Z,72.97
2018-12-04T08:59:05.462Z,74.31
2018-12-04T09:03:12.443Z,74.17
2018-12-04T09:07:21.567Z,74.54
2018-12-04T09:11:30.642Z,73.54
2018-12-04T09:15:38.100Z,73.77
2018-12-04T09:19:46.349Z,74.14
2018-12-04T09:23:53.721Z,74.63
2018-12-04T09:28:00.910Z,73.68
2018-12-04T09:32:07.168Z,72.53
2018-12-04T09:36:13.857Z,73.17
2018-12-04T09:40:19.451Z,73.44
2018-12-04T09:44:25.383Z,73.74
2018-12-04T09:48:31.464Z,72.39
2018-12-04T09:52:39.472Z,71.95
2018-12-04T09:56:45.317Z,72.63
2018-12-04T10:00:51.552Z,71.94
2018-12-04T10:04:58.375Z,72.85
2018-12-04T10:09:06.506Z,72.10
2018-12-04T10:13:13.108Z,72.23
2018-12-04T10:17:21.668Z,71.61
2018-12-04T10:21:29.299Z,72.21
2018-12-04T10:25:37.792Z,71.84
2018-12-04T10:29:45.321Z,71.66
2018-12-04T10:33:51.310Z,70.66
2018-12-04T10:38:00.459Z,70.06
2018-12-04T10:42:06.704Z,71.71
2018-12-04T10:46:12.539Z,70.22
2018-12-04T10:50:21.077Z,70.23
2018-12-04T10:54:27.036Z,70.72
2018-12-04T10:58:33.300Z,70.69
2018-12-04T11:02:47.947Z,70.51
2018-12-04T11:06:54.570Z,70.93
2018-12-04T11:11:01.060Z,70.54
2018-12-04T11:15:07.650Z,70.59
2018-12-04T11:19:14.667Z,70.99
2018-12-04T11:23:21.668Z,71.31
2018-12-04T11:27:33.908Z,70.31
2018-12-04T11:31:43.862Z,68.10
2018-12-04T11:35:56.318Z,68.51
2018-12-04T11:40:05.057Z,67.63
2018-12-04T11:44:11.996Z,66.97
2018-12-04T11:48:20.419Z,66.46
2018-12-04T11:52:29.633Z,64.32
2018-12-04T11:56:36.207Z,68.11
2018-12-04T12:00:46.466Z,62.90
2018-12-04T12:04:53.993Z,61.09
2018-12-04T12:09:04.176Z,59.72
2018-12-04T12:13:14.419Z,57.06
2018-12-04T12:17:21.672Z,57.59
2018-12-04T12:21:28.954Z,57.64
2018-12-04T12:25:35.121Z,56.49
2018-12-04T12:29:40.859Z,56.99
2018-12-04T12:33:46.647Z,57.90
2018-12-04T12:37:59.621Z,58.82
2018-12-04T12:42:08.156Z,58.41
2018-12-04T12:46:17.664Z,58.56
2018-12-04T12:50:23.843Z,60.20
2018-12-04T12:54:33.184Z,60.01
2018-12-04T12:58:50.742Z,60.16
2018-12-04T13:03:01.054Z,59.51
2018-12-04T13:07:10.538Z,59.69
2018-12-04T13:11:17.584Z,60.25
2018-12-04T13:15:26.369Z,59.94
2018-12-04T13:24:13.939Z,61.24
2018-12-04T13:28:21.858Z,60.82
2018-12-04T13:32:42.200Z,60.64
2018-12-04T13:41:40.006Z,62.07
2018-12-04T13:45:47.177Z,62.83
2018-12-04T13:50:00.124Z,62.88
2018-12-04T13:54:08.801Z,63.67
2018-12-04T13:58:15.552Z,63.08
2018-12-04T14:02:25.104Z,63.84
2018-12-04T14:06:31.349Z,64.37
2018-12-04T14:10:43.445Z,63.81
2018-12-04T14:14:52.423Z,64.10
2018-12-04T14:19:00.430Z,63.20
2018-12-04T14:23:06.993Z,63.45
2018-12-04T14:27:13.694Z,63.80
2018-12-04T14:31:25.563Z,64.81
2018-12-04T14:35:34.811Z,65.77
2018-12-04T14:39:57.881Z,65.00
2018-12-04T14:44:05.086Z,64.62
2018-12-04T14:48:14.549Z,64.86
2018-12-04T14:52:26.362Z,65.19
2018-12-04T14:56:33.266Z,67.09
2018-12-04T15:00:41.164Z,67.72
2018-12-04T15:04:48.280Z,66.80
2018-12-04T15:08:56.310Z,67.49
2018-12-04T15:13:02.961Z,66.82
2018-12-04T15:17:09.417Z,67.86
2018-12-04T15:21:15.363Z,67.84
2018-12-04T15:25:21.691Z,68.55
2018-12-04T15:29:27.416Z,69.01
2018-12-04T15:33:34.926Z,69.57
2018-12-04T15:37:42.175Z,69.86
2018-12-04T15:41:48.961Z,70.58
2018-12-04T15:45:57.027Z,71.18
2018-12-04T15:50:06.594Z,71.37
2018-12-04T15:54:12.788Z,71.77
2018-12-04T15:58:20.015Z,71.99
2018-12-04T16:02:26.692Z,72.49
2018-12-04T16:06:32.419Z,73.64
2018-12-04T16:10:39.777Z,73.75
2018-12-04T16:14:45.612Z,73.18
2018-12-04T16:18:51.576Z,74.03
2018-12-04T16:22:57.413Z,74.94
2018-12-04T16:27:03.381Z,74.83
2018-12-04T16:31:10.650Z,74.92
2018-12-04T16:35:16.329Z,75.48
2018-12-04T16:39:23.051Z,75.77
2018-12-04T16:43:29.245Z,75.82
2018-12-04T16:47:35.083Z,75.56
2018-12-04T16:51:40.768Z,75.24
2018-12-04T16:55:47.478Z,74.98
2018-12-04T16:59:56.208Z,74.67
2018-12-04T17:04:02.425Z,74.89
2018-12-04T17:08:08.189Z,74.83
2018-12-04T17:12:13.979Z,74.93
2018-12-04T17:16:19.655Z,74.85
2018-12-04T17:20:25.366Z,74.55
2018-12-04T17:24:31.201Z,75.26
2018-12-04T17:28:36.864Z,76.04
2018-12-04T17:32:42.647Z,74.86
2018-12-04T17:36:48.181Z,74.89
2018-12-04T17:40:54.331Z,75.05
2018-12-04T17:45:00.102Z,75.66
2018-12-04T17:49:05.837Z,75.87
2018-12-04T17:53:11.997Z,76.54
2018-12-04T17:57:17.814Z,76.08
2018-12-04T18:01:25.599Z,76.24
2018-12-04T18:05:33.276Z,76.12
2018-12-04T18:09:39.731Z,76.19
2018-12-04T18:13:47.410Z,76.71
2018-12-04T18:17:53.157Z,76.86
2018-12-04T18:21:58.937Z,76.87
2018-12-04T18:26:04.758Z,76.98
2018-12-04T18:30:10.511Z,77.73
2018-12-04T18:34:16.278Z,77.52
2018-12-04T18:38:25.246Z,78.27
2018-12-04T18:42:30.823Z,78.91
2018-12-04T18:46:36.476Z,79.39
2018-12-04T18:50:44.494Z,79.11
2018-12-04T18:54:53.878Z,80.98
2018-12-04T18:58:59.747Z,79.74
2018-12-04T19:03:07.554Z,79.87
2018-12-04T19:07:14.504Z,79.14
2018-12-04T19:11:21.551Z,80.26
2018-12-04T19:15:28.613Z,80.81
2018-12-04T19:19:35.858Z,82.23
2018-12-04T19:23:42.787Z,83.22
2018-12-04T19:27:49.718Z,81.67
2018-12-04T19:32:02.688Z,82.00
2018-12-04T19:36:09.302Z,81.67
2018-12-04T19:40:17.951Z,81.99
2018-12-04T19:44:24.163Z,80.80
2018-12-04T19:48:30.023Z,81.29
2018-12-04T19:52:38.294Z,80.70
2018-12-04T19:56:44.187Z,81.05
2018-12-04T20:00:50.171Z,81.02
2018-12-04T20:04:56.784Z,80.54
2018-12-04T20:09:05.841Z,80.90
2018-12-04T20:13:16.754Z,81.18
2018-12-04T20:17:23.069Z,81.71
2018-12-04T20:21:34.449Z,83.08
2018-12-04T20:25:40.801Z,84.17
2018-12-04T20:29:46.935Z,84.66
2018-12-04T20:33:57.212Z,85.08
2018-12-04T20:38:03.734Z,85.23
2018-12-04T20:42:12.163Z,86.14
2018-12-04T20:46:19.146Z,84.74
2018-12-04T20:50:27.808Z,85.48
2018-12-04T20:54:58.555Z,85.22
2018-12-04T20:59:07.254Z,85.27
2018-12-04T21:03:13.447Z,85.29
2018-12-04T21:07:20.571Z,86.09
2018-12-04T21:11:31.623Z,86.56
2018-12-04T21:15:41.392Z,85.80
2018-12-04T21:19:50.851Z,85.95
2018-12-04T21:23:58.908Z,86.74
2018-12-04T21:28:14.778Z,86.54
2018-12-04T21:32:27.885Z,87.65
2018-12-04T21:36:45.430Z,87.45
2018-12-04T21:41:03.519Z,89.48
2018-12-04T21:45:19.177Z,89.87
2018-12-04T21:49:27.019Z,90.85
2018-12-04T21:53:36.245Z,90.62
2018-12-04T21:57:42.167Z,91.35
2018-12-04T22:01:50.089Z,90.42
2018-12-04T22:05:57.213Z,90.87
2018-12-04T22:10:04.236Z,91.16
2018-12-04T22:14:10.389Z,91.31
2018-12-04T22:18:16.347Z,91.38
2018-12-04T22:22:22.419Z,92.03
2018-12-04T22:26:29.486Z,92.60
2018-12-04T22:30:35.714Z,92.52
2018-12-04T22:34:46.633Z,92.34
2018-12-04T22:38:52.586Z,92.96
2018-12-04T22:43:03.661Z,92.99
2018-12-04T22:47:09.813Z,93.27
2018-12-04T22:51:21.975Z,92.81
2018-12-04T22:55:31.163Z,93.17
2018-12-04T22:59:39.367Z,94.09
2018-12-04T23:03:53.919Z,93.51
2018-12-04T23:08:02.154Z,93.71
2018-12-04T23:12:15.543Z,93.67
2018-12-04T23:16:26.496Z,93.69
2018-12-04T23:20:32.573Z,93.81
2018-12-04T23:24:39.768Z,93.65
2018-12-04T23:28:45.829Z,93.70
2018-12-04T23:32:54.294Z,93.62
2018-12-04T23:37:01.368Z,93.74
2018-12-04T23:41:07.512Z,94.12
2018-12-04T23:45:14.796Z,94.44
2018-12-04T23:49:20.774Z,94.34
2018-12-04T23:53:26.738Z,94.38
2018-12-04T23:57:32.743Z,94.30
